createdAt,value
2019-06-15T00:00:58.762Z,21.90
2019-06-15T00:05:03.296Z,21.90
2019-06-15T00:09:08.632Z,21.80
2019-06-15T00:13:13.144Z,21.80
2019-06-15T00:17:17.683Z,21.80
2019-06-15T00:21:22.238Z,21.80
2019-06-15T00:25:26.838Z,21.80
2019-06-15T00:29:31.432Z,21.80
2019-06-15T00:33:35.991Z,21.80
2019-06-15T00:37:40.627Z,21.70
2019-06-15T00:41:45.184Z,21.70
2019-06-15T00:45:49.745Z,21.70
2019-06-15T00:49:54.296Z,21.70
2019-06-15T00:53:58.800Z,21.70
2019-06-15T00:58:03.411Z,21.70
2019-06-15T01:02:07.986Z,21.70
2019-06-15T01:06:12.529Z,21.70
2019-06-15T01:10:17.194Z,21.70
2019-06-15T01:14:21.739Z,21.70
2019-06-15T01:18:26.290Z,21.60
2019-06-15T01:22:31.063Z,21.60
2019-06-15T01:26:35.661Z,21.50
2019-06-15T01:30:40.213Z,21.50
2019-06-15T01:34:44.720Z,21.50
2019-06-15T01:38:49.293Z,21.40
2019-06-15T01:42:53.840Z,21.30
2019-06-15T01:46:58.376Z,21.30
2019-06-15T01:51:02.897Z,21.20
2019-06-15T01:55:20.005Z,21.10
2019-06-15T01:59:13.867Z,21.10
2019-06-15T02:03:18.422Z,21.00
2019-06-15T02:07:22.972Z,21.00
2019-06-15T02:11:27.533Z,20.90
2019-06-15T02:15:32.080Z,20.90
2019-06-15T02:19:36.635Z,20.80
2019-06-15T02:23:41.192Z,20.80
2019-06-15T02:27:45.757Z,20.80
2019-06-15T02:31:50.279Z,20.70
2019-06-15T02:35:54.836Z,20.70
2019-06-15T02:39:59.396Z,20.70
2019-06-15T02:44:04.443Z,20.70
2019-06-15T02:48:09.013Z,20.60
2019-06-15T02:52:13.525Z,20.60
2019-06-15T02:56:18.090Z,20.50
2019-06-15T03:00:54.169Z,20.50
2019-06-15T03:04:58.722Z,20.50
2019-06-15T03:09:03.744Z,20.50
2019-06-15T03:13:08.342Z,20.40
2019-06-15T03:17:12.865Z,20.40
2019-06-15T03:21:17.395Z,20.40
2019-06-15T03:25:21.957Z,20.40
2019-06-15T03:29:26.511Z,20.30
2019-06-15T03:33:31.072Z,20.30
2019-06-15T03:37:35.597Z,20.30
2019-06-15T03:41:40.142Z,20.20
2019-06-15T03:45:44.727Z,20.20
2019-06-15T03:49:49.356Z,20.20
2019-06-15T03:53:53.961Z,20.20
2019-06-15T03:57:58.520Z,20.10
2019-06-15T04:02:03.161Z,20.10
2019-06-15T04:06:07.844Z,20.10
2019-06-15T04:10:12.425Z,20.10
2019-06-15T04:14:16.948Z,20.00
2019-06-15T04:18:21.483Z,20.00
2019-06-15T04:22:26.024Z,19.90
2019-06-15T04:26:36.109Z,20.00
2019-06-15T04:30:36.789Z,19.90
2019-06-15T04:34:41.313Z,19.90
2019-06-15T04:38:45.864Z,19.90
2019-06-15T04:42:50.434Z,19.80
2019-06-15T04:46:54.992Z,19.80
2019-06-15T04:50:59.564Z,19.80
2019-06-15T04:55:04.224Z,19.70
2019-06-15T04:59:08.794Z,19.70
2019-06-15T05:03:13.348Z,19.70
2019-06-15T05:07:17.924Z,19.70
2019-06-15T05:11:24.405Z,19.70
2019-06-15T05:15:28.960Z,19.70
2019-06-15T05:19:33.511Z,19.80
2019-06-15T05:23:38.120Z,19.80
2019-06-15T05:27:42.677Z,19.90
2019-06-15T05:31:47.219Z,19.90
2019-06-15T05:35:51.788Z,20.00
2019-06-15T05:39:56.339Z,20.00
2019-06-15T05:44:00.907Z,20.10
2019-06-15T05:48:05.566Z,20.20
2019-06-15T05:52:10.090Z,20.20
2019-06-15T05:56:14.653Z,20.30
2019-06-15T06:00:19.404Z,20.40
2019-06-15T06:04:23.938Z,20.60
2019-06-15T06:08:28.523Z,20.80
2019-06-15T06:12:33.045Z,21.10
2019-06-15T06:16:37.591Z,21.20
2019-06-15T06:20:42.137Z,21.30
2019-06-15T06:24:46.689Z,21.70
2019-06-15T06:28:57.159Z,22.40
2019-06-15T06:32:57.383Z,23.10
2019-06-15T06:37:01.956Z,23.80
2019-06-15T06:41:06.511Z,24.60
2019-06-15T06:45:11.873Z,25.30
2019-06-15T06:49:16.377Z,25.70
2019-06-15T06:53:22.210Z,25.70
2019-06-15T06:57:26.808Z,25.60
2019-06-15T07:01:31.361Z,25.40
2019-06-15T07:05:35.945Z,25.10
2019-06-15T07:09:40.478Z,24.90
2019-06-15T07:13:45.066Z,24.70
2019-06-15T07:17:49.661Z,24.70
2019-06-15T07:21:54.254Z,24.90
2019-06-15T07:25:58.841Z,25.30
2019-06-15T07:30:03.450Z,26.10
2019-06-15T07:34:08.087Z,26.70
2019-06-15T07:38:12.645Z,27.10
2019-06-15T07:42:17.622Z,27.30
2019-06-15T07:50:26.084Z,27.80
2019-06-15T07:54:30.651Z,28.20
2019-06-15T07:58:35.221Z,28.30
2019-06-15T08:02:39.781Z,28.10
2019-06-15T08:06:44.440Z,27.90
2019-06-15T08:10:49.009Z,28.00
2019-06-15T08:14:53.574Z,28.30
2019-06-15T08:18:58.222Z,28.40
2019-06-15T08:23:02.778Z,28.40
2019-06-15T08:27:07.324Z,28.20
2019-06-15T08:31:11.851Z,27.90
2019-06-15T08:35:16.404Z,27.90
2019-06-15T08:39:20.969Z,28.00
2019-06-15T08:43:25.595Z,28.00
2019-06-15T08:47:30.100Z,28.00
2019-06-15T08:51:34.713Z,27.90
2019-06-15T08:55:39.303Z,27.60
2019-06-15T08:59:43.916Z,27.40
2019-06-15T09:03:49.502Z,27.30
2019-06-15T09:07:54.284Z,27.20
2019-06-15T09:11:58.886Z,27.10
2019-06-15T09:16:03.481Z,27.00
2019-06-15T09:20:09.977Z,26.80
2019-06-15T09:24:14.599Z,26.50
2019-06-15T09:28:19.187Z,26.30
2019-06-15T09:32:23.731Z,26.00
2019-06-15T09:36:28.283Z,25.80
2019-06-15T09:40:32.859Z,25.50
2019-06-15T09:44:37.422Z,25.30
2019-06-15T09:48:41.991Z,25.10
2019-06-15T09:52:46.524Z,24.90
2019-06-15T09:56:51.098Z,24.70
2019-06-15T10:00:55.664Z,24.60
2019-06-15T10:05:00.220Z,24.40
2019-06-15T10:09:06.776Z,24.10
2019-06-15T10:13:11.313Z,23.90
2019-06-15T10:17:15.860Z,23.60
2019-06-15T10:21:20.424Z,23.40
2019-06-15T10:25:25.004Z,23.20
2019-06-15T10:29:41.714Z,23.10
2019-06-15T10:33:35.936Z,23.10
2019-06-15T10:37:40.502Z,23.10
2019-06-15T10:41:45.048Z,23.20
2019-06-15T10:45:49.631Z,23.20
2019-06-15T10:49:54.165Z,23.10
2019-06-15T10:53:59.914Z,23.00
2019-06-15T10:58:04.661Z,22.90
2019-06-15T11:02:09.613Z,22.80
2019-06-15T11:06:14.185Z,22.80
2019-06-15T11:10:26.353Z,22.80
2019-06-15T11:14:32.977Z,22.80
2019-06-15T11:18:37.754Z,22.70
2019-06-15T11:22:42.307Z,22.70
2019-06-15T11:26:46.869Z,22.70
2019-06-15T11:30:51.469Z,22.70
2019-06-15T11:34:56.095Z,22.70
2019-06-15T11:39:00.725Z,22.70
2019-06-15T11:43:05.286Z,22.60
2019-06-15T11:47:09.834Z,22.60
2019-06-15T11:51:14.402Z,22.60
2019-06-15T11:55:20.030Z,22.70
2019-06-15T11:59:24.725Z,22.70
2019-06-15T12:03:29.273Z,22.80
2019-06-15T12:07:34.466Z,22.80
2019-06-15T12:11:39.078Z,22.80
2019-06-15T12:15:43.621Z,22.80
2019-06-15T12:19:48.173Z,23.00
2019-06-15T12:23:52.834Z,23.10
2019-06-15T12:27:57.356Z,23.20
2019-06-15T12:32:01.909Z,23.30
2019-06-15T12:36:18.318Z,23.40
2019-06-15T12:40:12.673Z,23.50
2019-06-15T12:44:17.246Z,23.60
2019-06-15T12:48:21.724Z,23.70
2019-06-15T12:52:26.276Z,23.70
2019-06-15T12:56:30.835Z,23.80
2019-06-15T13:00:38.770Z,23.80
2019-06-15T13:04:43.313Z,24.00
2019-06-15T13:08:47.890Z,24.10
2019-06-15T13:12:52.460Z,24.20
2019-06-15T13:16:57.017Z,24.20
2019-06-15T13:21:01.595Z,24.20
2019-06-15T13:25:06.385Z,24.20
2019-06-15T13:29:10.893Z,24.20
2019-06-15T13:33:15.454Z,24.20
2019-06-15T13:37:20.009Z,24.10
2019-06-15T13:41:24.723Z,24.10
2019-06-15T13:45:29.379Z,24.00
2019-06-15T13:49:33.892Z,24.00
2019-06-15T13:53:38.449Z,24.00
2019-06-15T13:57:42.997Z,23.90
2019-06-15T14:01:47.552Z,23.90
2019-06-15T14:05:52.091Z,23.80
2019-06-15T14:09:56.647Z,23.80
2019-06-15T14:14:02.052Z,23.80
2019-06-15T14:18:06.637Z,23.90
2019-06-15T14:22:11.198Z,23.90
2019-06-15T14:26:15.752Z,23.90
2019-06-15T14:30:20.429Z,23.90
2019-06-15T14:34:25.008Z,23.90
2019-06-15T14:38:29.707Z,23.90
2019-06-15T14:42:34.215Z,24.00
2019-06-15T14:46:38.748Z,24.00
2019-06-15T14:50:43.305Z,24.00
2019-06-15T14:54:47.864Z,24.00
2019-06-15T14:58:52.409Z,24.10
2019-06-15T15:02:56.981Z,24.10
2019-06-15T15:07:01.502Z,24.10
2019-06-15T15:11:06.711Z,24.10
2019-06-15T15:15:11.430Z,24.10
2019-06-15T15:19:16.622Z,24.10
2019-06-15T15:23:21.352Z,24.10
2019-06-15T15:27:27.110Z,24.10
2019-06-15T15:31:31.913Z,24.10
2019-06-15T15:35:37.198Z,24.30
2019-06-15T15:39:41.928Z,24.30
2019-06-15T15:43:46.505Z,24.30
2019-06-15T15:47:51.016Z,24.40
2019-06-15T15:51:56.642Z,24.40
2019-06-15T15:56:01.324Z,24.40
2019-06-15T16:00:07.360Z,24.40
2019-06-15T16:04:12.163Z,24.50
2019-06-15T16:08:16.666Z,24.50
2019-06-15T16:12:21.271Z,24.50
2019-06-15T16:16:26.662Z,24.50
2019-06-15T16:20:31.484Z,24.50
2019-06-15T16:24:37.461Z,24.40
2019-06-15T16:28:42.151Z,24.40
2019-06-15T16:33:00.152Z,24.30
2019-06-15T16:36:52.917Z,24.30
2019-06-15T16:40:57.469Z,24.20
2019-06-15T16:45:02.029Z,24.10
2019-06-15T16:49:06.564Z,24.10
2019-06-15T16:53:11.116Z,24.10
2019-06-15T16:57:16.175Z,24.10
2019-06-15T17:01:20.837Z,24.10
2019-06-15T17:05:27.443Z,24.10
2019-06-15T17:09:31.632Z,24.10
2019-06-15T17:13:37.044Z,24.10
2019-06-15T17:17:41.758Z,24.10
2019-06-15T17:21:46.680Z,24.10
2019-06-15T17:25:51.421Z,24.10
2019-06-15T17:29:56.208Z,24.10
2019-06-15T17:34:00.797Z,24.20
2019-06-15T17:38:05.357Z,24.20
2019-06-15T17:42:09.909Z,24.20
2019-06-15T17:46:16.448Z,24.20
2019-06-15T17:50:26.581Z,24.30
2019-06-15T17:54:30.883Z,24.30
2019-06-15T17:58:37.055Z,24.10
2019-06-15T18:02:41.941Z,24.00
2019-06-15T18:06:47.023Z,24.00
2019-06-15T18:10:51.783Z,24.00
2019-06-15T18:14:56.828Z,23.90
2019-06-15T18:19:01.582Z,23.90
2019-06-15T18:23:06.213Z,23.70
2019-06-15T18:27:11.779Z,23.60
2019-06-15T18:31:16.445Z,23.50
2019-06-15T18:35:21.093Z,23.40
2019-06-15T18:39:26.383Z,23.40
2019-06-15T18:43:31.221Z,23.30
2019-06-15T18:47:36.429Z,23.20
2019-06-15T18:51:41.421Z,23.20
2019-06-15T18:55:47.311Z,23.10
2019-06-15T18:59:56.300Z,23.10
2019-06-15T19:04:01.198Z,23.00
2019-06-15T19:08:06.618Z,23.00
2019-06-15T19:12:11.449Z,22.80
2019-06-15T19:16:16.713Z,22.70
2019-06-15T19:20:21.495Z,22.50
2019-06-15T19:24:26.163Z,22.50
2019-06-15T19:28:30.725Z,22.30
2019-06-15T19:32:36.853Z,22.20
2019-06-15T19:36:41.632Z,22.10
2019-06-15T19:40:46.314Z,22.00
2019-06-15T19:44:50.909Z,21.90
2019-06-15T19:48:56.057Z,21.80
2019-06-15T19:53:00.656Z,21.70
2019-06-15T19:57:06.790Z,21.60
2019-06-15T20:01:11.559Z,21.50
2019-06-15T20:05:16.060Z,21.40
2019-06-15T20:09:20.651Z,21.30
2019-06-15T20:13:25.199Z,21.20
2019-06-15T20:17:29.762Z,21.10
2019-06-15T20:21:37.306Z,21.00
2019-06-15T20:25:40.485Z,20.90
2019-06-15T20:29:47.350Z,20.80
2019-06-15T20:33:52.312Z,20.70
2019-06-15T20:37:56.972Z,20.60
2019-06-15T20:42:01.514Z,20.50
2019-06-15T20:46:07.083Z,20.40
2019-06-15T20:50:27.253Z,20.30
2019-06-15T20:54:18.609Z,20.20
2019-06-15T20:58:23.157Z,20.10
2019-06-15T21:02:27.687Z,20.10
2019-06-15T21:06:32.236Z,19.90
2019-06-15T21:10:37.370Z,19.80
2019-06-15T21:14:42.308Z,19.70
2019-06-15T21:18:46.892Z,19.60
2019-06-15T21:22:51.408Z,19.60
2019-06-15T21:26:56.446Z,19.50
2019-06-15T21:31:01.001Z,19.40
2019-06-15T21:35:06.602Z,19.30
2019-06-15T21:39:11.336Z,19.30
2019-06-15T21:43:15.886Z,19.20
2019-06-15T21:47:20.428Z,19.10
2019-06-15T21:51:27.023Z,19.10
2019-06-15T21:55:31.152Z,18.90
2019-06-15T21:59:36.965Z,18.90
2019-06-15T22:03:41.797Z,18.80
2019-06-15T22:07:47.626Z,18.70
2019-06-15T22:11:52.575Z,18.70
2019-06-15T22:15:57.120Z,18.60
2019-06-15T22:20:01.656Z,18.50
2019-06-15T22:24:06.809Z,18.40
2019-06-15T22:28:11.644Z,18.30
2019-06-15T22:32:16.608Z,18.20
2019-06-15T22:36:25.324Z,18.20
2019-06-15T22:40:27.521Z,18.10
2019-06-15T22:44:32.069Z,18.00
2019-06-15T22:48:36.559Z,18.00
2019-06-15T22:52:41.108Z,17.90
2019-06-15T22:56:46.581Z,17.80
2019-06-15T23:00:51.227Z,17.80
2019-06-15T23:04:56.576Z,17.70
2019-06-15T23:09:01.242Z,17.60
2019-06-15T23:13:06.456Z,17.50
2019-06-15T23:17:11.110Z,17.50
2019-06-15T23:21:17.336Z,17.40
2019-06-15T23:25:21.940Z,17.40
2019-06-15T23:29:27.121Z,17.30
2019-06-15T23:33:31.788Z,17.30
2019-06-15T23:37:37.574Z,17.20
2019-06-15T23:41:42.372Z,17.10
2019-06-15T23:45:47.020Z,17.00
2019-06-15T23:49:51.547Z,16.90
2019-06-15T23:53:57.118Z,16.80
2019-06-15T23:58:01.917Z,16.70
